createdAt,value
2022-10-08T00:02:18.800Z,12.40
2022-10-08T00:04:46.261Z,12.03
2022-10-08T00:07:12.891Z,11.70
2022-10-08T00:09:39.685Z,10.60
2022-10-08T00:12:06.346Z,11.07
2022-10-08T00:14:33.037Z,10.80
2022-10-08T00:16:59.736Z,10.63
2022-10-08T00:19:26.469Z,11.80
2022-10-08T00:21:56.958Z,10.60
2022-10-08T00:24:23.965Z,10.80
2022-10-08T00:26:51.246Z,10.33
2022-10-08T00:29:21.003Z,10.63
2022-10-08T00:31:48.550Z,10.17
2022-10-08T00:34:16.889Z,10.03
2022-10-08T00:36:43.648Z,9.63
2022-10-08T00:39:14.272Z,10.20
2022-10-08T00:41:41.056Z,10.00
2022-10-08T00:44:26.508Z,9.53
2022-10-08T00:46:53.715Z,9.03
2022-10-08T00:49:20.563Z,9.40
2022-10-08T00:51:49.929Z,9.17
2022-10-08T00:54:19.767Z,10.17
2022-10-08T00:56:51.290Z,8.80
2022-10-08T00:59:17.964Z,8.80
2022-10-08T01:01:44.607Z,9.07
2022-10-08T01:07:05.076Z,8.90
2022-10-08T01:09:31.866Z,8.63
2022-10-08T01:12:02.153Z,9.23
2022-10-08T01:14:31.756Z,8.47
2022-10-08T01:17:17.002Z,8.10
2022-10-08T01:20:04.889Z,8.40
2022-10-08T01:22:36.005Z,8.80
2022-10-08T01:28:32.750Z,8.80
2022-10-08T01:31:01.176Z,7.90
2022-10-08T01:33:36.486Z,8.60
2022-10-08T01:36:05.282Z,8.23
2022-10-08T01:38:33.590Z,8.10
2022-10-08T01:41:00.988Z,7.43
2022-10-08T01:43:28.465Z,8.10
2022-10-08T01:45:57.187Z,7.30
2022-10-08T01:48:25.252Z,8.13
2022-10-08T01:51:13.878Z,8.70
2022-10-08T01:53:41.048Z,6.53
2022-10-08T01:56:08.488Z,7.77
2022-10-08T01:58:48.442Z,7.53
2022-10-08T02:01:27.827Z,7.93
2022-10-08T02:04:13.111Z,7.37
2022-10-08T02:06:41.446Z,8.30
2022-10-08T02:09:08.140Z,7.63
2022-10-08T02:14:25.940Z,8.10
2022-10-08T02:19:56.548Z,8.27
2022-10-08T02:22:25.776Z,8.00
2022-10-08T02:24:53.519Z,8.50
2022-10-08T02:27:22.619Z,8.50
2022-10-08T02:29:53.607Z,8.03
2022-10-08T02:32:22.431Z,8.10
2022-10-08T02:37:57.881Z,7.30
2022-10-08T02:43:11.275Z,6.77
2022-10-08T02:45:42.350Z,6.90
2022-10-08T02:48:12.039Z,6.50
2022-10-08T02:50:39.824Z,6.93
2022-10-08T02:53:07.265Z,6.77
2022-10-08T02:55:38.424Z,7.80
2022-10-08T03:00:53.998Z,7.07
2022-10-08T03:03:27.448Z,7.53
2022-10-08T03:05:54.220Z,6.90
2022-10-08T03:08:21.094Z,7.53
2022-10-08T03:10:47.852Z,7.80
2022-10-08T03:13:14.457Z,8.10
2022-10-08T03:15:41.315Z,7.50
2022-10-08T03:18:08.984Z,7.93
2022-10-08T03:20:39.988Z,8.00
2022-10-08T03:23:06.737Z,7.53
2022-10-08T03:25:33.362Z,7.87
2022-10-08T03:28:00.171Z,7.50
2022-10-08T03:30:26.999Z,7.57
2022-10-08T03:32:53.829Z,7.37
2022-10-08T03:35:20.485Z,8.37
2022-10-08T03:37:47.152Z,9.10
2022-10-08T03:42:58.178Z,9.37
2022-10-08T03:45:24.824Z,9.47
2022-10-08T03:47:52.493Z,8.73
2022-10-08T03:50:20.018Z,8.97
2022-10-08T03:52:46.985Z,9.27
2022-10-08T03:55:13.974Z,8.60
2022-10-08T03:57:40.748Z,9.20
2022-10-08T04:00:07.763Z,7.73
2022-10-08T04:02:34.775Z,8.37
2022-10-08T04:05:01.412Z,9.03
2022-10-08T04:10:12.629Z,8.13
2022-10-08T04:15:23.601Z,8.47
2022-10-08T04:17:50.235Z,8.20
2022-10-08T04:20:17.153Z,7.50
2022-10-08T04:22:44.102Z,7.50
2022-10-08T04:25:11.040Z,8.27
2022-10-08T04:27:37.678Z,8.77
2022-10-08T04:30:05.326Z,8.70
2022-10-08T04:35:16.279Z,8.13
2022-10-08T04:37:42.993Z,9.23
2022-10-08T04:40:09.876Z,8.80
2022-10-08T04:42:36.491Z,8.57
2022-10-08T04:45:03.207Z,8.40
2022-10-08T04:47:30.385Z,8.57
2022-10-08T04:49:57.185Z,8.20
2022-10-08T04:52:23.935Z,8.37
2022-10-08T04:54:50.664Z,7.90
2022-10-08T04:57:17.350Z,8.10
2022-10-08T05:00:05.822Z,7.27
2022-10-08T05:02:31.119Z,7.77
2022-10-08T05:04:57.904Z,8.03
2022-10-08T05:07:24.653Z,7.30
2022-10-08T05:09:51.350Z,7.23
2022-10-08T05:12:35.699Z,6.70
2022-10-08T05:15:02.600Z,6.93
2022-10-08T05:17:29.327Z,6.37
2022-10-08T05:19:56.006Z,6.40
2022-10-08T05:22:22.639Z,6.43
2022-10-08T05:24:49.532Z,6.23
2022-10-08T05:27:16.253Z,6.10
2022-10-08T05:29:42.972Z,6.23
2022-10-08T05:32:09.666Z,5.83
2022-10-08T05:34:36.447Z,5.63
2022-10-08T05:37:03.140Z,6.07
2022-10-08T05:39:29.858Z,5.70
2022-10-08T05:41:56.629Z,5.90
2022-10-08T05:44:23.526Z,5.63
2022-10-08T05:46:50.336Z,5.40
2022-10-08T05:49:20.799Z,5.93
2022-10-08T05:51:47.785Z,5.07
2022-10-08T05:54:15.034Z,5.30
2022-10-08T05:59:26.553Z,5.50
2022-10-08T06:01:53.304Z,6.07
2022-10-08T06:04:20.272Z,7.03
2022-10-08T06:06:47.285Z,6.33
2022-10-08T06:09:14.771Z,5.53
2022-10-08T06:11:42.599Z,5.93
2022-10-08T06:14:13.003Z,5.40
2022-10-08T06:16:39.989Z,4.87
2022-10-08T06:19:07.185Z,5.27
2022-10-08T06:21:34.205Z,5.37
2022-10-08T06:26:45.808Z,5.20
2022-10-08T06:32:00.133Z,5.53
2022-10-08T06:34:26.925Z,5.40
2022-10-08T06:36:53.971Z,5.57
2022-10-08T06:39:20.851Z,6.03
2022-10-08T06:41:47.925Z,5.53
2022-10-08T06:44:15.475Z,5.17
2022-10-08T06:46:42.925Z,5.80
2022-10-08T06:49:10.117Z,6.00
2022-10-08T06:51:37.733Z,5.70
2022-10-08T06:54:07.983Z,6.50
2022-10-08T06:56:37.785Z,6.57
2022-10-08T06:59:05.019Z,6.47
2022-10-08T07:01:33.932Z,6.70
2022-10-08T07:06:45.793Z,6.17
2022-10-08T07:09:13.567Z,6.27
2022-10-08T07:11:40.484Z,6.20
2022-10-08T07:14:07.349Z,5.90
2022-10-08T07:16:34.201Z,6.97
2022-10-08T07:19:01.103Z,7.00
2022-10-08T07:21:28.694Z,7.10
2022-10-08T07:23:55.416Z,6.33
2022-10-08T07:26:22.991Z,6.50
2022-10-08T07:28:53.462Z,6.43
2022-10-08T07:31:22.281Z,6.40
2022-10-08T07:33:49.036Z,6.70
2022-10-08T07:36:16.758Z,7.30
2022-10-08T07:38:43.465Z,6.93
2022-10-08T07:41:10.464Z,6.33
2022-10-08T07:43:37.391Z,6.30
2022-10-08T07:48:50.979Z,6.03
2022-10-08T07:51:18.413Z,6.37
2022-10-08T07:53:45.205Z,5.97
2022-10-08T07:56:14.160Z,5.50
2022-10-08T07:58:40.921Z,5.43
2022-10-08T08:01:08.919Z,5.50
2022-10-08T08:03:35.686Z,5.80
2022-10-08T08:06:06.102Z,5.47
2022-10-08T08:08:34.197Z,5.97
2022-10-08T08:11:01.136Z,6.30
2022-10-08T08:13:35.938Z,5.57
2022-10-08T08:16:06.578Z,5.63
2022-10-08T08:21:23.044Z,5.37
2022-10-08T08:23:50.900Z,5.67
2022-10-08T08:26:17.623Z,5.70
2022-10-08T08:28:44.435Z,5.37
2022-10-08T08:31:11.130Z,5.27
2022-10-08T08:33:38.150Z,10.33
2022-10-08T08:36:05.005Z,5.23
2022-10-08T08:41:28.115Z,5.20
2022-10-08T08:44:00.847Z,5.03
2022-10-08T08:46:28.445Z,5.23
2022-10-08T08:48:55.546Z,4.80
2022-10-08T08:51:22.349Z,4.93
2022-10-08T08:53:49.062Z,5.60
2022-10-08T08:56:16.168Z,5.20
2022-10-08T08:58:44.916Z,4.90
2022-10-08T09:01:23.745Z,4.60
2022-10-08T09:03:50.610Z,5.07
2022-10-08T09:06:18.339Z,5.23
2022-10-08T09:09:04.326Z,4.13
2022-10-08T09:11:31.024Z,4.53
2022-10-08T09:13:57.984Z,4.93
2022-10-08T09:19:10.820Z,4.63
2022-10-08T09:24:21.654Z,4.53
2022-10-08T09:29:33.591Z,4.60
2022-10-08T09:32:00.313Z,4.80
2022-10-08T09:34:27.530Z,4.60
2022-10-08T09:36:54.741Z,4.00
2022-10-08T09:42:13.418Z,3.67
2022-10-08T09:47:37.399Z,4.43
2022-10-08T09:53:00.325Z,4.50
2022-10-08T09:55:28.650Z,3.87
2022-10-08T09:57:56.699Z,4.17
2022-10-08T10:00:24.569Z,3.83
2022-10-08T10:05:39.675Z,4.20
2022-10-08T10:08:06.430Z,5.10
2022-10-08T10:10:37.523Z,4.67
2022-10-08T10:13:10.601Z,4.43
2022-10-08T10:15:39.747Z,4.50
2022-10-08T10:21:00.628Z,4.23
2022-10-08T10:23:41.019Z,4.10
2022-10-08T10:26:09.244Z,4.20
2022-10-08T10:28:40.778Z,4.10
2022-10-08T10:31:11.933Z,3.77
2022-10-08T10:34:02.038Z,3.47
2022-10-08T10:36:35.614Z,4.03
2022-10-08T10:39:18.174Z,3.83
2022-10-08T10:41:53.479Z,3.60
2022-10-08T10:47:05.218Z,4.27
2022-10-08T10:52:36.911Z,4.07
2022-10-08T10:55:06.442Z,5.20
2022-10-08T10:57:51.925Z,8.03
2022-10-08T11:00:33.395Z,6.57
2022-10-08T11:03:08.326Z,4.53
2022-10-08T11:05:35.420Z,3.50
2022-10-08T11:08:17.727Z,5.30
2022-10-08T11:10:53.651Z,4.10
2022-10-08T11:13:38.789Z,3.33
2022-10-08T11:19:18.810Z,3.13
2022-10-08T11:21:45.621Z,3.33
2022-10-08T11:24:38.364Z,2.57
2022-10-08T11:27:17.931Z,3.10
2022-10-08T11:29:46.633Z,2.73
2022-10-08T11:32:14.079Z,3.20
2022-10-08T11:34:42.988Z,2.60
2022-10-08T11:37:12.816Z,3.13
2022-10-08T11:39:45.597Z,2.40
2022-10-08T11:42:18.580Z,3.13
2022-10-08T11:44:45.427Z,3.00
2022-10-08T11:47:46.349Z,3.13
2022-10-08T11:50:25.520Z,2.70
2022-10-08T11:52:52.461Z,2.50
2022-10-08T11:55:20.693Z,3.40
2022-10-08T11:58:07.689Z,2.67
2022-10-08T12:00:42.045Z,2.40
2022-10-08T12:03:18.399Z,2.40
2022-10-08T12:05:50.123Z,2.43
2022-10-08T12:08:35.954Z,2.70
2022-10-08T12:11:23.656Z,2.67
2022-10-08T12:14:09.598Z,2.67
2022-10-08T12:16:49.532Z,2.60
2022-10-08T12:19:34.931Z,2.83
2022-10-08T12:22:02.489Z,2.40
2022-10-08T12:24:38.183Z,2.13
2022-10-08T12:27:17.312Z,2.30
2022-10-08T12:29:57.382Z,2.50
2022-10-08T12:32:24.900Z,2.03
2022-10-08T12:34:51.964Z,2.40
2022-10-08T12:37:37.318Z,2.27
2022-10-08T12:40:10.713Z,2.30
2022-10-08T12:42:37.535Z,2.10
2022-10-08T12:45:34.254Z,2.10
2022-10-08T12:48:05.147Z,2.40
2022-10-08T12:50:38.360Z,2.40
2022-10-08T12:53:06.705Z,2.37
2022-10-08T12:55:38.029Z,2.20
2022-10-08T12:58:05.275Z,2.97
2022-10-08T13:00:33.029Z,2.53
2022-10-08T13:03:05.053Z,2.77
2022-10-08T13:05:32.105Z,2.87
2022-10-08T13:07:58.929Z,2.60
2022-10-08T13:10:27.087Z,2.83
2022-10-08T13:13:00.119Z,2.40
2022-10-08T13:15:26.995Z,2.53
2022-10-08T13:17:56.681Z,2.20
2022-10-08T13:20:23.552Z,2.33
2022-10-08T13:22:50.314Z,2.60
2022-10-08T13:25:32.488Z,3.07
2022-10-08T13:28:15.557Z,2.47
2022-10-08T13:30:44.716Z,2.67
2022-10-08T13:33:12.509Z,2.80
2022-10-08T13:35:39.603Z,2.80
2022-10-08T13:38:07.172Z,3.00
2022-10-08T13:40:33.937Z,2.80
2022-10-08T13:43:00.727Z,2.90
2022-10-08T13:45:36.757Z,2.60
2022-10-08T13:48:03.510Z,2.70
2022-10-08T13:50:30.186Z,2.97
2022-10-08T13:55:43.315Z,3.27
2022-10-08T13:58:10.858Z,2.70
2022-10-08T14:00:39.991Z,2.70
2022-10-08T14:03:06.747Z,2.90
2022-10-08T14:08:20.285Z,2.50
2022-10-08T14:13:31.770Z,2.77
2022-10-08T14:18:43.359Z,3.00
2022-10-08T14:23:56.407Z,2.40
2022-10-08T14:29:08.011Z,2.60
2022-10-08T14:31:34.930Z,2.20
2022-10-08T14:34:01.755Z,2.53
2022-10-08T14:39:20.044Z,2.53
2022-10-08T14:41:46.983Z,4.17
2022-10-08T14:44:16.719Z,4.13
2022-10-08T14:46:43.806Z,2.60
2022-10-08T14:49:10.573Z,6.37
2022-10-08T14:51:40.258Z,6.60
2022-10-08T14:54:07.186Z,6.93
2022-10-08T14:56:44.147Z,5.50
2022-10-08T14:59:11.347Z,4.20
2022-10-08T15:01:38.317Z,4.30
2022-10-08T15:04:05.369Z,4.00
2022-10-08T15:06:32.401Z,4.40
2022-10-08T15:08:59.223Z,4.80
2022-10-08T15:14:10.772Z,4.63
2022-10-08T15:16:39.603Z,5.07
2022-10-08T15:19:09.434Z,4.80
2022-10-08T15:21:36.770Z,5.60
2022-10-08T15:24:03.569Z,5.80
2022-10-08T15:26:30.466Z,23.53
2022-10-08T15:28:57.274Z,8.47
2022-10-08T15:34:41.886Z,4.83
2022-10-08T15:40:19.330Z,5.17
2022-10-08T15:42:47.724Z,5.50
2022-10-08T15:45:14.834Z,5.53
2022-10-08T15:47:41.631Z,4.67
2022-10-08T15:50:08.696Z,4.87
2022-10-08T15:52:35.489Z,4.57
2022-10-08T15:55:02.767Z,5.53
2022-10-08T15:57:29.731Z,6.23
2022-10-08T15:59:59.387Z,5.60
2022-10-08T16:02:28.169Z,6.47
2022-10-08T16:04:55.178Z,6.57
2022-10-08T16:07:22.108Z,6.07
2022-10-08T16:09:49.100Z,5.50
2022-10-08T16:12:15.805Z,4.90
2022-10-08T16:14:42.552Z,5.30
2022-10-08T16:17:09.544Z,5.60
2022-10-08T16:19:36.523Z,5.13
2022-10-08T16:22:04.087Z,5.17
2022-10-08T16:24:31.029Z,6.00
2022-10-08T16:26:58.106Z,5.70
2022-10-08T16:29:25.038Z,5.73
2022-10-08T16:31:51.904Z,5.40
2022-10-08T16:34:19.974Z,5.40
2022-10-08T16:36:48.506Z,5.53
2022-10-08T16:39:19.989Z,5.80
2022-10-08T16:41:47.340Z,5.90
2022-10-08T16:44:15.242Z,6.10
2022-10-08T16:49:27.891Z,5.97
2022-10-08T16:52:01.629Z,6.03
2022-10-08T16:54:28.507Z,67.67
2022-10-08T16:56:55.246Z,37.40
2022-10-08T16:59:23.004Z,6.23
2022-10-08T17:01:50.817Z,5.60
2022-10-08T17:04:18.161Z,4.93
2022-10-08T17:06:46.186Z,5.40
2022-10-08T17:09:13.193Z,6.07
2022-10-08T17:11:40.134Z,6.10
2022-10-08T17:14:08.764Z,6.47
2022-10-08T17:16:35.595Z,5.93
2022-10-08T17:19:02.841Z,5.80
2022-10-08T17:21:29.670Z,5.93
2022-10-08T17:23:57.034Z,6.13
2022-10-08T17:26:23.918Z,6.40
2022-10-08T17:28:51.237Z,5.93
2022-10-08T17:31:19.150Z,6.90
2022-10-08T17:33:46.075Z,6.33
2022-10-08T17:36:19.625Z,6.03
2022-10-08T17:38:47.164Z,6.67
2022-10-08T17:41:14.591Z,6.60
2022-10-08T17:43:41.428Z,6.30
2022-10-08T17:46:12.179Z,8.43
2022-10-08T17:48:39.007Z,8.33
2022-10-08T17:51:06.069Z,7.30
2022-10-08T17:53:32.759Z,7.53
2022-10-08T17:56:00.233Z,7.53
2022-10-08T17:58:28.098Z,7.43
2022-10-08T18:01:01.809Z,7.70
2022-10-08T18:06:14.543Z,10.40
2022-10-08T18:08:41.229Z,7.80
2022-10-08T18:11:08.604Z,9.90
2022-10-08T18:13:35.365Z,9.77
2022-10-08T18:16:12.318Z,7.90
2022-10-08T18:18:39.760Z,6.57
2022-10-08T18:21:08.304Z,7.10
2022-10-08T18:26:26.334Z,5.37
2022-10-08T18:28:56.559Z,5.57
2022-10-08T18:31:24.600Z,6.43
2022-10-08T18:33:51.808Z,6.73
2022-10-08T18:36:20.844Z,6.43
2022-10-08T18:38:48.346Z,5.87
2022-10-08T18:41:16.058Z,5.23
2022-10-08T18:46:29.413Z,5.43
2022-10-08T18:51:41.050Z,6.53
2022-10-08T18:56:56.881Z,5.97
2022-10-08T19:02:11.680Z,6.30
2022-10-08T19:04:41.544Z,7.30
2022-10-08T19:07:08.632Z,7.20
2022-10-08T19:09:38.610Z,6.13
2022-10-08T19:14:52.665Z,6.30
2022-10-08T19:17:19.989Z,6.00
2022-10-08T19:19:47.346Z,5.73
2022-10-08T19:22:15.381Z,6.30
2022-10-08T19:24:43.875Z,5.50
2022-10-08T19:27:10.585Z,5.83
2022-10-08T19:29:40.880Z,5.83
2022-10-08T19:32:07.691Z,5.53
2022-10-08T19:34:34.617Z,6.23
2022-10-08T19:37:02.108Z,5.60
2022-10-08T19:39:32.858Z,8.00
2022-10-08T19:42:00.130Z,5.93
2022-10-08T19:44:29.974Z,5.23
2022-10-08T19:46:56.698Z,5.30
2022-10-08T19:49:24.657Z,5.10
2022-10-08T19:51:55.035Z,5.20
2022-10-08T19:57:06.998Z,6.00
2022-10-08T19:59:34.061Z,5.40
2022-10-08T20:02:00.926Z,5.00
2022-10-08T20:04:27.765Z,4.90
2022-10-08T20:06:54.728Z,4.80
2022-10-08T20:09:21.475Z,4.30
2022-10-08T20:11:49.417Z,4.10
2022-10-08T20:14:16.782Z,3.90
2022-10-08T20:16:45.342Z,4.37
2022-10-08T20:19:18.765Z,4.00
2022-10-08T20:21:45.594Z,3.20
2022-10-08T20:24:12.620Z,3.73
2022-10-08T20:26:39.712Z,3.67
2022-10-08T20:29:09.917Z,3.77
2022-10-08T20:34:27.178Z,2.93
2022-10-08T20:36:54.130Z,2.83
2022-10-08T20:39:21.370Z,2.97
2022-10-08T20:41:48.707Z,3.17
2022-10-08T20:47:03.873Z,2.70
2022-10-08T20:49:34.161Z,2.43
2022-10-08T20:52:01.012Z,2.27
2022-10-08T20:54:27.651Z,3.10
2022-10-08T20:59:38.915Z,2.90
2022-10-08T21:04:50.972Z,2.60
2022-10-08T21:07:17.598Z,3.50
2022-10-08T21:09:46.018Z,2.90
2022-10-08T21:12:12.661Z,3.30
2022-10-08T21:14:40.591Z,2.90
2022-10-08T21:17:07.226Z,3.03
2022-10-08T21:19:33.983Z,2.67
2022-10-08T21:24:50.904Z,2.50
2022-10-08T21:27:19.654Z,2.60
2022-10-08T21:29:46.268Z,2.43
2022-10-08T21:32:13.675Z,2.60
2022-10-08T21:34:40.538Z,2.13
2022-10-08T21:37:10.422Z,2.27
2022-10-08T21:39:39.655Z,2.10
2022-10-08T21:42:06.327Z,1.83
2022-10-08T21:44:34.416Z,2.00
2022-10-08T21:47:01.031Z,2.00
2022-10-08T21:49:27.781Z,2.33
2022-10-08T21:51:58.357Z,2.53
2022-10-08T21:54:25.061Z,2.03
2022-10-08T21:56:51.728Z,2.20
2022-10-08T21:59:18.413Z,2.43
2022-10-08T22:01:45.997Z,2.27
2022-10-08T22:04:13.667Z,2.53
2022-10-08T22:06:42.453Z,2.13
2022-10-08T22:09:10.717Z,2.40
2022-10-08T22:14:21.796Z,2.30
2022-10-08T22:16:48.606Z,2.40
2022-10-08T22:19:15.589Z,2.00
2022-10-08T22:21:42.209Z,2.57
2022-10-08T22:24:09.034Z,2.03
2022-10-08T22:26:36.740Z,2.13
2022-10-08T22:29:03.750Z,1.60
2022-10-08T22:34:17.041Z,1.57
2022-10-08T22:39:28.200Z,1.67
2022-10-08T22:41:54.832Z,1.87
2022-10-08T22:44:22.141Z,2.10
2022-10-08T22:46:48.798Z,2.67
2022-10-08T22:49:15.493Z,2.17
2022-10-08T22:51:43.843Z,1.70
2022-10-08T22:54:10.594Z,1.73
2022-10-08T22:56:37.679Z,1.40
2022-10-08T22:59:04.353Z,2.00
2022-10-08T23:01:31.059Z,1.67
2022-10-08T23:03:58.087Z,1.77
2022-10-08T23:06:25.509Z,1.83
2022-10-08T23:08:53.215Z,1.30
2022-10-08T23:11:19.845Z,1.60
2022-10-08T23:13:49.336Z,1.30
2022-10-08T23:16:16.072Z,1.40
2022-10-08T23:21:29.995Z,1.10
2022-10-08T23:23:56.812Z,1.07
2022-10-08T23:26:23.879Z,0.93
2022-10-08T23:28:54.787Z,1.60
2022-10-08T23:34:08.672Z,0.90
2022-10-08T23:36:36.890Z,0.97
2022-10-08T23:39:04.088Z,0.80
2022-10-08T23:41:30.775Z,1.10
2022-10-08T23:43:57.872Z,0.63
2022-10-08T23:46:25.157Z,0.40
2022-10-08T23:48:51.970Z,0.70
2022-10-08T23:54:03.014Z,0.73
2022-10-08T23:59:13.878Z,0.90
